createdAt,value
2022-10-18T00:00:00.258Z,16.0
2022-10-18T00:10:00.308Z,16.0
2022-10-18T00:20:00.270Z,16.0
2022-10-18T00:30:00.265Z,16.0
2022-10-18T00:40:00.330Z,16.0
2022-10-18T00:50:00.298Z,16.0
2022-10-18T01:00:00.261Z,16.0
2022-10-18T01:10:00.266Z,16.0
2022-10-18T01:20:00.327Z,16.0
2022-10-18T01:30:00.249Z,16.0
2022-10-18T01:40:00.270Z,16.0
2022-10-18T01:50:00.253Z,16.0
2022-10-18T02:00:00.251Z,16.0
2022-10-18T02:10:00.362Z,16.0
2022-10-18T02:20:00.307Z,16.0
2022-10-18T02:30:00.379Z,16.0
2022-10-18T02:40:00.273Z,16.0
2022-10-18T02:50:00.263Z,16.0
2022-10-18T03:00:00.287Z,16.0
2022-10-18T03:10:00.239Z,16.0
2022-10-18T03:20:00.276Z,16.0
2022-10-18T03:30:00.257Z,16.0
2022-10-18T03:40:00.331Z,16.0
2022-10-18T03:50:00.273Z,16.0
2022-10-18T04:00:00.255Z,16.0
2022-10-18T04:10:00.296Z,8.3
2022-10-18T04:20:00.262Z,8.2
2022-10-18T04:30:00.252Z,8.1
2022-10-18T04:40:00.253Z,8.1
2022-10-18T04:50:00.316Z,8.1
2022-10-18T05:00:00.250Z,8.0
2022-10-18T05:10:00.257Z,7.9
2022-10-18T05:20:00.389Z,7.8
2022-10-18T05:30:01.447Z,7.9
2022-10-18T05:40:00.291Z,7.8
2022-10-18T05:50:00.255Z,7.8
2022-10-18T06:00:00.353Z,7.8
2022-10-18T06:10:00.286Z,7.8
2022-10-18T06:20:00.242Z,7.8
2022-10-18T06:30:00.287Z,8.0
2022-10-18T06:40:00.305Z,8.3
2022-10-18T06:50:00.242Z,8.7
2022-10-18T07:00:00.245Z,9.1
2022-10-18T07:10:00.349Z,9.9
2022-10-18T07:20:00.467Z,10.3
2022-10-18T07:30:00.275Z,11.0
2022-10-18T07:40:00.297Z,11.8
2022-10-18T07:50:00.284Z,12.3
2022-10-18T08:00:00.277Z,13.1
2022-10-18T08:10:00.264Z,13.5
2022-10-18T08:20:11.222Z,14.2
2022-10-18T08:30:00.365Z,14.6
2022-10-18T08:40:00.245Z,15.0
2022-10-18T08:50:00.273Z,15.4
2022-10-18T09:00:00.264Z,15.7
2022-10-18T09:10:00.294Z,16.2
2022-10-18T09:30:00.409Z,17.2
2022-10-18T09:40:00.280Z,17.8
2022-10-18T09:50:00.269Z,18.2
2022-10-18T10:00:00.261Z,18.5
2022-10-18T10:10:00.288Z,18.7
2022-10-18T10:20:00.246Z,18.9
2022-10-18T10:30:02.888Z,19.2
2022-10-18T10:40:17.176Z,19.3
2022-10-18T10:50:00.261Z,19.4
2022-10-18T11:00:00.352Z,19.7
2022-10-18T11:10:00.278Z,19.8
2022-10-18T11:20:00.267Z,19.8
2022-10-18T11:30:00.272Z,19.9
2022-10-18T11:40:00.261Z,20.0
2022-10-18T11:50:00.332Z,20.1
2022-10-18T12:00:00.275Z,20.2
2022-10-18T12:10:00.271Z,20.2
2022-10-18T12:20:00.251Z,20.2
2022-10-18T12:30:00.240Z,20.3
2022-10-18T12:40:12.376Z,20.4
2022-10-18T12:50:00.263Z,20.4
2022-10-18T13:00:00.341Z,20.4
2022-10-18T13:10:00.268Z,20.4
2022-10-18T13:20:20.829Z,20.4
2022-10-18T13:30:00.269Z,20.4
2022-10-18T13:40:00.281Z,20.4
2022-10-18T13:50:00.273Z,20.4
2022-10-18T14:00:00.295Z,20.3
2022-10-18T14:10:01.993Z,20.2
2022-10-18T14:20:00.275Z,20.2
2022-10-18T14:30:00.286Z,20.1
2022-10-18T14:40:00.283Z,19.9
2022-10-18T14:50:00.281Z,19.8
2022-10-18T15:00:00.263Z,19.6
2022-10-18T15:10:00.277Z,19.3
2022-10-18T15:20:01.771Z,19.1
2022-10-18T15:30:00.304Z,18.8
2022-10-18T15:40:00.323Z,18.5
2022-10-18T15:50:00.326Z,18.2
2022-10-18T16:00:00.350Z,17.8
2022-10-18T16:10:00.327Z,17.5
2022-10-18T16:20:00.271Z,17.0
2022-10-18T16:30:00.338Z,16.7
2022-10-18T16:40:00.274Z,16.4
2022-10-18T16:50:04.078Z,16.1
2022-10-18T17:00:00.250Z,15.8
2022-10-18T17:10:00.263Z,15.5
2022-10-18T17:20:00.272Z,15.2
2022-10-18T17:30:00.261Z,15.0
2022-10-18T17:40:00.308Z,14.8
2022-10-18T17:50:00.275Z,14.6
2022-10-18T18:00:00.573Z,14.5
2022-10-18T18:10:00.275Z,14.4
2022-10-18T18:20:00.275Z,14.2
2022-10-18T18:30:00.252Z,14.1
2022-10-18T18:40:00.283Z,14.0
2022-10-18T18:50:00.342Z,13.8
2022-10-18T19:00:00.311Z,13.7
2022-10-18T19:10:00.306Z,13.5
2022-10-18T19:20:00.272Z,13.3
2022-10-18T19:30:00.317Z,13.2
2022-10-18T19:40:00.290Z,13.1
2022-10-18T19:50:00.299Z,13.0
2022-10-18T20:00:00.850Z,12.8
2022-10-18T20:10:00.267Z,12.6
2022-10-18T20:20:00.264Z,12.4
2022-10-18T20:30:00.249Z,12.2
2022-10-18T20:40:00.291Z,12.2
2022-10-18T20:50:00.274Z,12.1
2022-10-18T21:00:00.256Z,12.0
2022-10-18T21:10:00.354Z,11.8
2022-10-18T21:20:00.269Z,11.8
2022-10-18T21:30:00.322Z,11.7
2022-10-18T21:40:00.251Z,11.6
2022-10-18T21:50:00.272Z,11.5
2022-10-18T22:00:00.257Z,11.3
2022-10-18T22:10:00.248Z,11.2
2022-10-18T22:20:00.301Z,11.2
2022-10-18T22:30:00.263Z,11.1
2022-10-18T22:40:00.269Z,11.1
2022-10-18T22:50:00.299Z,11.1
2022-10-18T23:00:00.317Z,11.1
2022-10-18T23:10:00.243Z,11.0
2022-10-18T23:20:00.261Z,11.0
2022-10-18T23:30:00.296Z,10.9
2022-10-18T23:40:00.283Z,10.8
2022-10-18T23:50:00.273Z,10.8
